Time;durP1;ratioP1;P1;durP2;ratioP2;P2;SDS_P1;SDS_P2;PMS_P1;PMS_P2;Temp;Humidity;BMP_temperature;BMP_pressure;BME280_temperature;BME280_humidity;BME280_pressure;Samples;Min_cycle;Max_cycle;Signal;HPM_P1;HPM_P2
2023/03/31 00:00:46;;;;;;;17.17;4.72;;;;;;;9.95;100.00;100134.03;5012609;28;20499;-46
2023/03/31 00:03:12;;;;;;;23.85;4.47;;;;;;;9.96;100.00;100122.59;5012225;28;20076;-45
2023/03/31 00:05:38;;;;;;;17.50;3.85;;;;;;;9.98;100.00;100112.88;5011848;28;20121;-46
2023/03/31 00:08:04;;;;;;;15.32;4.18;;;;;;;10.07;100.00;100120.34;5013545;28;20049;-43
2023/03/31 00:10:32;;;;;;;19.48;4.10;;;;;;;9.79;100.00;100054.09;5013297;28;20297;-46
2023/03/31 00:12:58;;;;;;;17.85;4.00;;;;;;;10.03;100.00;100098.63;5011914;28;20037;-45
2023/03/31 00:15:23;;;;;;;20.95;5.45;;;;;;;9.77;100.00;100040.16;5003624;28;20121;-45
2023/03/31 00:17:48;;;;;;;12.25;3.97;;;;;;;10.13;100.00;100096.47;4993712;28;20478;-44
2023/03/31 00:20:14;;;;;;;15.93;3.95;;;;;;;9.88;100.00;100053.69;4993841;28;20482;-45
2023/03/31 00:22:45;;;;;;;21.65;3.85;;;;;;;10.18;100.00;100088.41;4993512;28;20117;-43
2023/03/31 00:25:11;;;;;;;11.65;3.60;;;;;;;10.27;100.00;100086.25;4993677;28;20118;-49
2023/03/31 00:27:37;;;;;;;13.00;3.40;;;;;;;10.31;100.00;100081.69;4992318;28;20069;-45
2023/03/31 00:30:04;;;;;;;11.68;3.20;;;;;;;10.37;100.00;100087.53;4993511;28;20070;-45
2023/03/31 00:32:32;;;;;;;11.90;3.47;;;;;;;10.36;100.00;100066.59;5006531;28;20042;-45
2023/03/31 00:34:57;;;;;;;10.35;3.08;;;;;;;10.36;100.00;100070.03;5012802;28;20117;-45
2023/03/31 00:37:23;;;;;;;11.20;2.92;;;;;;;10.34;100.00;100050.84;5013117;28;20406;-46
2023/03/31 00:39:49;;;;;;;14.95;3.47;;;;;;;10.04;100.00;99987.25;5011504;28;20141;-44
2023/03/31 00:42:14;;;;;;;11.85;3.20;;;;;;;10.41;100.00;100051.44;5012884;28;20145;-46
2023/03/31 00:45:13;;;;;;;12.73;3.47;;;;;;;10.41;100.00;100043.53;5012972;28;20045;-44
2023/03/31 00:47:47;;;;;;;12.95;3.72;;;;;;;10.04;100.00;99975.91;5012244;28;20038;-46
2023/03/31 00:50:17;;;;;;;14.30;3.80;;;;;;;10.43;100.00;100029.41;5012445;28;20069;-46
2023/03/31 00:52:44;;;;;;;13.25;3.38;;;;;;;10.08;100.00;99959.91;5011465;28;20030;-44
2023/03/31 00:55:15;;;;;;;12.60;3.90;;;;;;;10.54;100.00;100026.28;5011594;28;20046;-46
2023/03/31 00:57:41;;;;;;;;;;;;;;;10.56;100.00;100012.16;5012810;28;20084;-45
2023/03/31 01:00:14;;;;;;;10.18;3.22;;;;;;;10.61;100.00;100010.16;5012770;28;20275;-45
2023/03/31 01:02:51;;;;;;;14.30;3.47;;;;;;;10.59;100.00;99993.59;5010380;28;20480;-46
2023/03/31 01:05:18;;;;;;;12.02;3.45;;;;;;;10.67;100.00;99991.47;5011360;28;20025;-44
2023/03/31 01:07:45;;;;;;;7.68;2.95;;;;;;;10.68;100.00;99985.25;5011283;28;20029;-44
2023/03/31 01:10:11;;;;;;;11.20;3.63;;;;;;;10.48;100.00;99937.94;5011449;28;20377;-46
2023/03/31 01:12:38;;;;;;;15.02;3.60;;;;;;;10.85;100.00;99975.72;5011001;28;20416;-46
2023/03/31 01:15:04;;;;;;;14.02;3.38;;;;;;;10.58;100.00;99923.47;5012401;28;20030;-47
2023/03/31 01:17:30;;;;;;;12.30;3.00;;;;;;;10.95;100.00;99966.44;5011024;28;20038;-45
2023/03/31 01:20:13;;;;;;;14.43;3.75;;;;;;;10.87;100.00;99942.28;5011241;28;20038;-45
2023/03/31 01:23:06;;;;;;;13.55;3.67;;;;;;;10.98;100.00;99968.94;5010946;28;20495;-44
2023/03/31 01:25:53;;;;;;;12.27;3.20;;;;;;;10.99;100.00;99952.22;5012277;28;20030;-44
2023/03/31 01:28:24;;;;;;;8.32;3.60;;;;;;;11.05;100.00;99954.56;5012328;28;20508;-44
2023/03/31 01:31:11;;;;;;;13.82;4.15;;;;;;;11.01;100.00;99945.94;5011187;28;20176;-46
2023/03/31 01:34:21;;;;;;;15.27;3.70;;;;;;;10.95;100.00;99932.22;5012191;28;20964;-47
2023/03/31 01:37:17;;;;;;;11.23;3.50;;;;;;;10.84;100.00;99926.63;5011558;28;20375;-46
2023/03/31 01:40:09;;;;;;;16.30;4.60;;;;;;;10.79;100.00;99923.38;5012014;28;20076;-44
2023/03/31 01:42:37;;;;;;;;;;;;;;;10.68;100.00;99926.50;5012053;28;20516;-45
2023/03/31 01:45:11;;;;;;;8.32;3.28;;;;;;;10.41;100.00;99868.16;5012014;28;19921;-44
2023/03/31 01:47:51;;;;;;;16.63;4.78;;;;;;;10.56;100.00;99895.50;5010655;28;20451;-46
2023/03/31 01:50:23;;;;;;;15.13;4.07;;;;;;;10.52;100.00;99891.31;5009571;28;20037;-44
2023/03/31 01:53:02;;;;;;;14.13;3.85;;;;;;;10.20;100.00;99828.81;5010468;28;20034;-46
2023/03/31 01:55:41;;;;;;;14.00;3.55;;;;;;;10.25;100.00;99842.59;5010583;28;20057;-44
2023/03/31 01:58:11;;;;;;;17.88;4.68;;;;;;;10.46;100.00;99888.97;5010655;28;20030;-47
2023/03/31 02:00:44;;;;;;;19.08;4.95;;;;;;;10.18;100.00;99822.78;5010686;28;20392;-44
2023/03/31 02:03:23;;;;;;;18.52;4.22;;;;;;;10.39;100.00;99869.97;5010523;28;20030;-48
2023/03/31 02:05:55;;;;;;;17.83;4.90;;;;;;;10.03;100.00;99806.78;5010817;28;20034;-44
2023/03/31 02:09:03;;;;;;;16.75;4.40;;;;;;;10.33;100.00;99848.38;5009921;28;20030;-52
2023/03/31 02:11:30;;;;;;;13.88;4.65;;;;;;;10.25;100.00;99834.72;5013237;28;20066;-45
2023/03/31 02:14:01;;;;;;;15.80;4.82;;;;;;;10.25;100.00;99829.44;5015372;28;20052;-43
2023/03/31 02:16:31;;;;;;;15.63;4.97;;;;;;;10.22;100.00;99833.09;5014301;28;20034;-44
2023/03/31 02:19:02;;;;;;;17.65;4.85;;;;;;;10.21;100.00;99813.00;5014267;28;20041;-48
2023/03/31 02:21:31;;;;;;;17.02;5.05;;;;;;;10.18;100.00;99792.09;5014076;28;20034;-45
2023/03/31 02:23:59;;;;;;;15.65;4.68;;;;;;;10.09;100.00;99771.47;5014056;28;20045;-45
2023/03/31 02:26:28;;;;;;;16.05;4.57;;;;;;;10.18;100.00;99789.47;5014123;28;20041;-43
2023/03/31 02:28:53;;;;;;;16.63;4.78;;;;;;;10.16;100.00;99770.25;5014057;28;20033;-44
2023/03/31 02:31:32;;;;;;;13.25;3.63;;;;;;;10.14;100.00;99766.84;5015263;28;20034;-43
2023/03/31 02:33:58;;;;;;;14.25;4.35;;;;;;;9.90;100.00;99715.41;5015127;28;20397;-42
2023/03/31 02:36:23;;;;;;;13.70;4.28;;;;;;;10.07;100.00;99747.00;5015164;28;20037;-45
2023/03/31 02:39:02;;;;;;;11.98;3.97;;;;;;;10.12;100.00;99752.91;5014760;28;20380;-44
2023/03/31 02:41:28;;;;;;;13.35;3.45;;;;;;;9.75;100.00;99687.22;5014951;28;20131;-44
2023/03/31 02:43:53;;;;;;;15.05;3.88;;;;;;;9.75;100.00;99679.34;5012554;28;20131;-43
2023/03/31 02:46:19;;;;;;;15.80;4.57;;;;;;;10.08;100.00;99725.03;5014797;28;20488;-44
2023/03/31 02:48:47;;;;;;;13.82;4.90;;;;;;;9.99;100.00;99720.22;5013802;28;20038;-46
2023/03/31 02:51:37;;;;;;;13.27;4.57;;;;;;;10.02;100.00;99710.41;5013497;28;20025;-44
2023/03/31 02:54:12;;;;;;;14.65;4.25;;;;;;;10.01;100.00;99713.13;5014685;28;20572;-45
2023/03/31 02:56:40;;;;;;;15.50;4.95;;;;;;;9.98;100.00;99697.50;5014679;28;20030;-47
2023/03/31 02:59:30;;;;;;;10.82;4.50;;;;;;;9.99;100.00;99694.78;5013680;28;20033;-47
2023/03/31 03:02:23;;;;;;;10.35;4.57;;;;;;;9.61;100.00;99627.44;5014586;28;20041;-45
2023/03/31 03:05:19;;;;;;;19.15;5.05;;;;;;;9.94;100.00;99673.13;5013418;28;20038;-42
2023/03/31 03:08:06;;;;;;;12.98;4.95;;;;;;;9.94;100.00;99683.66;5013332;28;20044;-44
2023/03/31 03:10:47;;;;;;;16.88;5.15;;;;;;;9.59;100.00;99619.63;5013068;28;20121;-45
2023/03/31 03:13:36;;;;;;;;;;;;;;;9.91;100.00;99665.41;5013623;28;20033;-43
2023/03/31 03:16:23;;;;;;;13.02;3.83;;;;;;;9.89;100.00;99656.75;5021168;28;19918;-47
2023/03/31 03:18:57;;;;;;;13.20;3.83;;;;;;;9.88;100.00;99659.44;5014382;28;20041;-43
2023/03/31 03:21:23;;;;;;;10.38;3.10;;;;;;;9.82;100.00;99636.06;5013813;28;20396;-47
2023/03/31 03:23:48;;;;;;;7.55;2.40;;;;;;;9.82;100.00;99642.19;5013970;28;20117;-44
2023/03/31 03:26:15;;;;;;;10.32;2.80;;;;;;;9.39;100.00;99571.59;5012783;28;20030;-45
2023/03/31 03:28:40;;;;;;;7.38;2.35;;;;;;;9.47;100.00;99578.19;5013741;28;20480;-49
2023/03/31 03:31:08;;;;;;;6.53;2.00;;;;;;;9.70;100.00;99621.75;5012936;28;20080;-45
2023/03/31 03:33:33;;;;;;;7.35;1.83;;;;;;;9.67;100.00;99614.00;5014066;28;20477;-44
2023/03/31 03:35:58;;;;;;;6.05;1.75;;;;;;;9.59;100.00;99605.66;5014034;28;20069;-45
2023/03/31 03:38:24;;;;;;;8.18;2.08;;;;;;;9.58;100.00;99611.81;5013412;28;20050;-45
2023/03/31 03:40:52;;;;;;;6.07;2.05;;;;;;;9.44;100.00;99575.72;5014023;28;20038;-44
2023/03/31 03:43:17;;;;;;;8.07;2.20;;;;;;;9.50;100.00;99582.44;5013776;28;20026;-46
2023/03/31 03:45:47;;;;;;;7.25;1.90;;;;;;;9.43;100.00;99546.88;5013726;28;20084;-44
2023/03/31 03:48:12;;;;;;;7.63;2.42;;;;;;;9.39;100.00;99545.34;5012887;28;20473;-48
2023/03/31 03:50:37;;;;;;;7.60;2.90;;;;;;;9.37;100.00;99540.16;5013481;28;20065;-46
2023/03/31 03:53:03;;;;;;;5.97;2.80;;;;;;;9.39;100.00;99548.81;5013498;28;20042;-47
2023/03/31 03:55:28;;;;;;;11.35;3.13;;;;;;;9.42;100.00;99539.94;5013511;28;20056;-45
2023/03/31 03:57:53;;;;;;;7.03;3.35;;;;;;;9.12;100.00;99481.88;5013136;28;20033;-48
2023/03/31 04:00:19;;;;;;;10.90;2.88;;;;;;;8.84;100.00;99437.69;5013613;28;20038;-49
2023/03/31 04:02:44;;;;;;;11.52;3.10;;;;;;;9.45;100.00;99524.03;5013431;28;20393;-47
2023/03/31 04:05:10;;;;;;;10.00;2.88;;;;;;;9.15;100.00;99455.47;5012333;28;20042;-48
2023/03/31 04:07:35;;;;;;;10.25;3.25;;;;;;;9.15;100.00;99451.97;5013351;28;20052;-46
2023/03/31 04:10:00;;;;;;;10.45;4.78;;;;;;;9.49;100.00;99497.53;5013468;28;20049;-44
2023/03/31 04:12:26;;;;;;;17.67;7.03;;;;;;;9.50;100.00;99480.00;5013485;28;20058;-48
2023/03/31 04:14:51;;;;;;;13.88;6.55;;;;;;;9.46;100.00;99468.78;5011989;28;20034;-43
2023/03/31 04:17:16;;;;;;;16.42;8.05;;;;;;;9.63;100.00;99488.13;5013221;28;20040;-50
2023/03/31 04:19:42;;;;;;;17.67;8.57;;;;;;;9.63;100.00;99466.16;5013207;28;20065;-48
2023/03/31 04:22:10;;;;;;;17.15;9.50;;;;;;;9.65;100.00;99466.09;5011003;28;20496;-47
2023/03/31 04:24:37;;;;;;;18.55;9.57;;;;;;;9.38;100.00;99405.28;5011611;28;20527;-46
2023/03/31 04:27:06;;;;;;;21.23;9.15;;;;;;;9.68;100.00;99447.56;5011634;28;20134;-46
2023/03/31 04:29:32;;;;;;;16.65;9.35;;;;;;;9.69;100.00;99451.88;5013354;28;20036;-48
2023/03/31 04:31:58;;;;;;;18.05;8.27;;;;;;;9.73;100.00;99436.81;5012598;28;20092;-49
2023/03/31 04:34:25;;;;;;;12.18;7.40;;;;;;;9.60;100.00;99416.41;5012207;28;20034;-45
2023/03/31 04:36:54;;;;;;;20.02;7.13;;;;;;;9.39;100.00;99370.25;5011752;28;20183;-43
2023/03/31 04:39:25;;;;;;;19.70;7.47;;;;;;;9.76;100.00;99437.50;5012782;28;20062;-48
2023/03/31 04:41:52;;;;;;;16.08;6.82;;;;;;;9.46;100.00;99365.50;5013346;28;20069;-45
2023/03/31 04:44:17;;;;;;;19.08;7.18;;;;;;;9.57;100.00;99376.34;5011587;28;20060;-43
2023/03/31 04:46:42;;;;;;;14.82;6.15;;;;;;;9.69;100.00;99401.94;5012503;28;20124;-44
2023/03/31 04:49:08;;;;;;;12.70;5.78;;;;;;;9.74;100.00;99405.22;5012678;28;20478;-44
2023/03/31 04:51:33;;;;;;;17.50;6.32;;;;;;;9.67;100.00;99390.69;5012539;28;20516;-43
2023/03/31 04:53:58;;;;;;;11.38;5.05;;;;;;;9.74;100.00;99386.81;5011293;28;20038;-43
2023/03/31 04:56:24;;;;;;;11.75;5.47;;;;;;;9.56;100.00;99357.09;5012474;28;20041;-45
2023/03/31 04:58:49;;;;;;;16.65;5.25;;;;;;;9.71;100.00;99386.97;5012648;28;20030;-43
2023/03/31 05:01:17;;;;;;;13.77;5.20;;;;;;;9.71;100.00;99383.50;5009520;28;20128;-49
2023/03/31 05:03:43;;;;;;;14.63;4.55;;;;;;;9.42;100.00;99333.31;5009414;28;20504;-45
2023/03/31 05:06:08;;;;;;;12.05;4.10;;;;;;;9.69;100.00;99365.16;5011390;28;20041;-44
2023/03/31 05:08:34;;;;;;;9.73;4.20;;;;;;;9.68;100.00;99363.50;5012296;28;20296;-47
2023/03/31 05:11:02;;;;;;;15.00;5.05;;;;;;;9.56;100.00;99337.84;5011727;28;20544;-43
2023/03/31 05:13:27;;;;;;;11.35;3.72;;;;;;;9.70;100.00;99343.22;4993372;28;20030;-42
2023/03/31 05:15:52;;;;;;;8.38;3.38;;;;;;;9.73;100.00;99344.84;5011030;28;20141;-43
2023/03/31 05:18:18;;;;;;;10.25;3.38;;;;;;;9.46;100.00;99297.22;5012196;28;20512;-43
2023/03/31 05:20:43;;;;;;;9.50;3.20;;;;;;;9.77;100.00;99343.75;5012098;28;20112;-44
2023/03/31 05:23:08;;;;;;;9.32;2.60;;;;;;;9.76;100.00;99350.78;5011978;28;20030;-45
2023/03/31 05:25:34;;;;;;;7.95;3.25;;;;;;;9.73;100.00;99347.47;5012086;28;20033;-44
2023/03/31 05:28:00;;;;;;;5.57;3.13;;;;;;;9.71;100.00;99334.44;5009938;28;20037;-44
2023/03/31 05:30:26;;;;;;;11.07;3.20;;;;;;;9.45;100.00;99285.88;5012172;28;20038;-46
2023/03/31 05:32:52;;;;;;;8.02;2.85;;;;;;;9.77;100.00;99342.00;5010131;28;20037;-45
2023/03/31 05:35:18;;;;;;;6.97;2.25;;;;;;;9.81;100.00;99333.00;5011514;28;20029;-45
2023/03/31 05:37:43;;;;;;;7.70;3.00;;;;;;;9.49;100.00;99276.91;5011301;28;20124;-45
2023/03/31 05:40:09;;;;;;;3.78;1.88;;;;;;;9.77;100.00;99335.88;5010555;28;20042;-45
2023/03/31 05:42:35;;;;;;;8.55;2.55;;;;;;;9.77;100.00;99339.38;5010097;28;20602;-43
2023/03/31 05:45:00;;;;;;;5.50;2.22;;;;;;;9.77;100.00;99326.22;5012884;28;20122;-48
2023/03/31 05:47:25;;;;;;;4.57;2.25;;;;;;;9.48;100.00;99267.34;5015865;28;20101;-44
2023/03/31 05:49:52;;;;;;;6.45;2.13;;;;;;;9.78;100.00;99319.19;5014399;28;20039;-45
2023/03/31 05:52:17;;;;;;;5.82;1.80;;;;;;;9.79;100.00;99321.72;5015960;28;20416;-44
2023/03/31 05:54:43;;;;;;;5.10;1.40;;;;;;;9.83;100.00;99331.16;5016039;28;20065;-43
2023/03/31 05:57:08;;;;;;;4.13;1.73;;;;;;;9.72;100.00;99298.50;5014653;28;20034;-43
2023/03/31 05:59:35;;;;;;;4.00;1.70;;;;;;;9.85;100.00;99318.78;5015894;28;20044;-45
2023/03/31 06:02:01;;;;;;;3.92;1.55;;;;;;;9.71;100.00;99281.03;5014627;28;20139;-47
2023/03/31 06:04:27;;;;;;;4.82;1.80;;;;;;;9.84;100.00;99316.22;5014408;28;20030;-43
2023/03/31 06:06:52;;;;;;;10.35;2.10;;;;;;;9.85;100.00;99310.03;5015332;28;20041;-45
2023/03/31 06:09:18;;;;;;;2.85;1.60;;;;;;;9.49;100.00;99242.75;5015487;28;20084;-44
2023/03/31 06:11:43;;;;;;;5.60;1.25;;;;;;;9.50;100.00;99244.47;5012692;28;20104;-42
2023/03/31 06:14:09;;;;;;;5.20;1.60;;;;;;;9.82;100.00;99299.69;5030482;28;20512;-44
2023/03/31 06:16:34;;;;;;;4.13;1.55;;;;;;;9.80;100.00;99305.03;5015537;28;20034;-51
2023/03/31 06:19:00;;;;;;;3.22;1.33;;;;;;;9.44;100.00;99246.56;5014257;28;20030;-43
2023/03/31 06:21:25;;;;;;;6.15;1.80;;;;;;;9.79;100.00;99298.06;5014074;28;20044;-45
2023/03/31 06:23:54;;;;;;;5.57;1.65;;;;;;;9.79;100.00;99297.22;5015251;28;20105;-45
2023/03/31 06:26:20;;;;;;;2.75;1.45;;;;;;;9.44;100.00;99239.53;5015304;28;20038;-42
2023/03/31 06:28:46;;;;;;;6.25;1.55;;;;;;;9.70;100.00;99282.81;5014204;28;20132;-44
2023/03/31 06:31:17;;;;;;;4.72;1.58;;;;;;;9.66;100.00;99293.56;5013851;28;20533;-43
2023/03/31 06:33:42;;;;;;;5.38;1.25;;;;;;;9.36;100.00;99228.59;5013830;28;20041;-45
2023/03/31 06:36:09;;;;;;;4.53;1.60;;;;;;;9.65;100.00;99270.84;5013888;28;20034;-44
2023/03/31 06:38:37;;;;;;;5.28;1.80;;;;;;;9.70;100.00;99289.81;5013632;28;20041;-43
2023/03/31 06:41:02;;;;;;;4.03;1.92;;;;;;;9.66;100.00;99262.88;5011230;28;20038;-44
2023/03/31 06:43:27;;;;;;;4.55;1.77;;;;;;;9.64;100.00;99254.22;5012295;28;20543;-45
2023/03/31 06:45:54;;;;;;;4.20;1.60;;;;;;;9.74;100.00;99251.97;5011849;28;20033;-45
2023/03/31 06:48:19;;;;;;;5.47;1.60;;;;;;;9.76;100.00;99239.56;5011433;28;20405;-45
2023/03/31 06:50:45;;;;;;;6.18;1.77;;;;;;;9.89;100.00;99273.00;5013317;28;20048;-45
2023/03/31 06:53:10;;;;;;;5.78;2.20;;;;;;;9.55;100.00;99203.03;5012872;28;20041;-46
2023/03/31 06:55:36;;;;;;;6.97;1.90;;;;;;;9.86;100.00;99246.03;5011056;28;20049;-44
2023/03/31 06:58:02;;;;;;;5.80;2.22;;;;;;;9.94;100.00;99249.94;5012712;28;20034;-46
2023/03/31 07:00:27;;;;;;;3.88;2.33;;;;;;;9.65;100.00;99198.13;5011863;28;20041;-44
2023/03/31 07:02:53;;;;;;;7.35;2.17;;;;;;;10.01;100.00;99256.53;5012199;28;20779;-44
2023/03/31 07:05:25;;;;;;;4.57;2.22;;;;;;;10.01;100.00;99250.47;5011335;28;20385;-46
2023/03/31 07:07:51;;;;;;;5.18;2.60;;;;;;;9.76;100.00;99200.16;5012623;28;20488;-45
2023/03/31 07:10:16;;;;;;;11.82;3.53;;;;;;;9.87;100.00;99217.03;5012517;28;20120;-46
2023/03/31 07:12:41;;;;;;;5.15;2.88;;;;;;;9.80;100.00;99199.06;5012455;28;20524;-46
2023/03/31 07:15:07;;;;;;;8.38;3.45;;;;;;;10.16;100.00;99250.47;5012960;28;20526;-44
2023/03/31 07:17:32;;;;;;;8.35;3.53;;;;;;;10.23;100.00;99239.63;5012157;28;20030;-45
2023/03/31 07:19:59;;;;;;;10.82;4.00;;;;;;;10.31;100.00;99234.78;5012220;28;20041;-44
2023/03/31 07:22:25;;;;;;;9.20;3.35;;;;;;;10.42;100.00;99225.34;5011704;28;20420;-44
2023/03/31 07:24:50;;;;;;;8.70;3.80;;;;;;;10.24;100.00;99180.84;5011047;28;20132;-43
2023/03/31 07:27:15;;;;;;;7.65;3.90;;;;;;;10.35;100.00;99178.44;5012675;28;20492;-43
2023/03/31 07:29:40;;;;;;;7.88;4.03;;;;;;;10.45;100.00;99192.78;5011184;28;20045;-43
2023/03/31 07:32:06;;;;;;;12.45;3.78;;;;;;;10.37;100.00;99177.41;5012561;28;20144;-45
2023/03/31 07:34:31;;;;;;;8.68;3.97;;;;;;;10.72;100.00;99220.09;5010613;28;20038;-44
2023/03/31 07:36:57;;;;;;;11.73;4.35;;;;;;;10.52;100.00;99171.28;5012260;28;20113;-45
2023/03/31 07:39:22;;;;;;;9.43;3.83;;;;;;;10.79;100.00;99224.06;5011283;28;20042;-47
2023/03/31 07:41:47;;;;;;;10.95;4.50;;;;;;;10.73;100.00;99206.00;5010684;28;20108;-46
2023/03/31 07:44:14;;;;;;;10.10;3.80;;;;;;;10.57;100.00;99163.94;5012278;28;20042;-47
2023/03/31 07:46:40;;;;;;;12.40;4.10;;;;;;;10.63;100.00;99168.00;5012142;28;20041;-46
2023/03/31 07:49:06;;;;;;;11.20;4.18;;;;;;;10.70;100.00;99174.59;5012245;28;20429;-50
2023/03/31 07:51:32;;;;;;;14.20;4.65;;;;;;;10.88;100.00;99194.56;5011983;28;20459;-47
2023/03/31 07:53:58;;;;;;;6.75;3.58;;;;;;;10.95;100.00;99195.88;5012255;28;20046;-47
2023/03/31 07:56:23;;;;;;;8.43;4.15;;;;;;;10.76;100.00;99158.44;5011311;28;20068;-45
2023/03/31 07:58:50;;;;;;;12.45;4.28;;;;;;;10.87;100.00;99160.44;5012015;28;20034;-52
2023/03/31 08:01:17;;;;;;;11.90;4.00;;;;;;;10.88;100.00;99152.47;5011555;28;20034;-45
2023/03/31 08:03:44;;;;;;;10.80;4.35;;;;;;;11.19;100.00;99193.56;5011427;28;20121;-46
2023/03/31 08:06:09;;;;;;;14.65;4.70;;;;;;;11.03;100.00;99146.25;5011822;28;20042;-43
2023/03/31 08:08:37;;;;;;;17.45;3.92;;;;;;;10.97;100.00;99141.38;5007871;28;20061;-47
2023/03/31 08:11:03;;;;;;;8.88;3.20;;;;;;;11.35;100.00;99189.06;4987142;28;20050;-49
2023/03/31 08:13:28;;;;;;;14.13;3.78;;;;;;;11.34;100.00;99168.94;4997201;28;20045;-47
2023/03/31 08:15:53;;;;;;;10.82;3.67;;;;;;;11.34;100.00;99126.78;5010287;28;20069;-47
2023/03/31 08:18:19;;;;;;;9.95;3.45;;;;;;;11.53;100.00;99129.94;5011414;28;20061;-48
2023/03/31 08:20:44;;;;;;;15.30;4.28;;;;;;;11.77;100.00;99122.31;5010300;28;20038;-46
2023/03/31 08:23:10;;;;;;;14.00;3.85;;;;;;;12.27;100.00;99177.03;5011352;28;20497;-47
2023/03/31 08:25:37;;;;;;;11.05;3.40;;;;;;;11.80;100.00;99082.56;5010295;28;20042;-46
2023/03/31 08:28:02;;;;;;;8.90;3.05;;;;;;;12.34;100.00;99180.97;5010229;28;20069;-47
2023/03/31 08:30:28;;;;;;;12.85;4.07;;;;;;;12.19;100.00;99184.63;5008335;28;20061;-49
2023/03/31 08:32:53;;;;;;;16.85;3.85;;;;;;;12.06;100.00;99175.78;5011378;28;20504;-48
2023/03/31 08:35:18;;;;;;;12.93;3.80;;;;;;;11.54;100.00;99125.53;5010206;28;20046;-46
2023/03/31 08:37:43;;;;;;;12.43;3.95;;;;;;;11.28;100.00;99114.00;5011067;28;20040;-45
2023/03/31 08:40:21;;;;;;;10.18;3.25;;;;;;;11.19;100.00;99112.78;5010977;28;20052;-47
2023/03/31 08:42:49;;;;;;;15.38;4.55;;;;;;;11.45;100.00;99153.28;5010666;28;20041;-45
2023/03/31 08:45:25;;;;;;;14.05;3.97;;;;;;;11.12;100.00;99106.19;5026297;28;20401;-45
2023/03/31 08:48:19;;;;;;;13.85;4.63;;;;;;;11.40;100.00;99144.00;5007756;28;20049;-43
2023/03/31 08:50:48;;;;;;;17.50;4.47;;;;;;;11.29;100.00;99100.72;5010358;28;20124;-47
2023/03/31 08:53:26;;;;;;;13.15;5.10;;;;;;;11.47;100.00;99140.03;5010560;28;20030;-44
2023/03/31 08:55:54;;;;;;;16.90;4.47;;;;;;;11.59;100.00;99150.63;5010670;28;20029;-49
2023/03/31 08:58:41;;;;;;;15.25;4.97;;;;;;;11.64;100.00;99139.81;5009887;28;20123;-46
2023/03/31 09:01:15;;;;;;;12.15;4.25;;;;;;;11.62;100.00;99136.41;5010794;28;20057;-45
2023/03/31 09:04:32;;;;;;;17.17;4.78;;;;;;;11.68;100.00;99139.50;5009077;28;20025;-46
2023/03/31 09:07:10;;;;;;;14.32;4.07;;;;;;;11.49;100.00;99078.41;5007348;28;20148;-44
2023/03/31 09:10:12;;;;;;;14.68;4.53;;;;;;;12.09;100.00;99136.03;4989648;28;20053;-46
2023/03/31 09:12:52;;;;;;;15.95;4.68;;;;;;;12.43;100.00;99129.38;4991043;28;20061;-46
2023/03/31 09:15:39;;;;;;;14.03;3.93;;;;;;;12.46;100.00;99139.75;4990097;28;20160;-46
2023/03/31 09:18:34;;;;;;;18.17;4.70;;;;;;;12.13;100.00;99063.69;4989809;28;20061;-45
2023/03/31 09:21:31;;;;;;;15.73;3.65;;;;;;;12.34;100.00;99133.50;4990828;28;20465;-47
2023/03/31 09:24:00;;;;;;;15.02;4.57;;;;;;;12.25;100.00;99131.44;4999816;28;20035;-47
2023/03/31 09:26:33;;;;;;;15.93;3.92;;;;;;;11.83;100.00;99058.63;4989590;28;20039;-47
2023/03/31 09:29:00;;;;;;;16.70;4.15;;;;;;;11.69;100.00;99058.66;4989716;28;20031;-47
2023/03/31 09:31:26;;;;;;;15.48;4.28;;;;;;;11.69;100.00;99087.66;4990352;28;20034;-46
2023/03/31 09:33:55;;;;;;;16.10;4.43;;;;;;;11.53;100.00;99060.63;4990669;28;20069;-46
2023/03/31 09:36:23;;;;;;;23.02;4.47;;;;;;;11.69;100.00;99117.53;4990333;28;20295;-44
2023/03/31 09:38:48;;;;;;;13.27;4.07;;;;;;;11.55;100.00;99101.72;4993408;28;20555;-48
2023/03/31 09:41:15;;;;;;;16.48;4.40;;;;;;;11.15;100.00;99061.22;5008934;28;20033;-47
2023/03/31 09:43:42;;;;;;;17.13;5.07;;;;;;;11.34;100.00;99096.97;5008710;28;20156;-45
2023/03/31 09:46:35;;;;;;;22.63;4.90;;;;;;;11.30;100.00;99096.28;5007627;28;20048;-50
2023/03/31 09:49:05;;;;;;;17.40;5.10;;;;;;;10.94;100.00;99024.88;5009174;28;20018;-48
2023/03/31 09:51:33;;;;;;;16.38;5.10;;;;;;;11.24;100.00;99080.88;5009185;28;20041;-46
2023/03/31 09:54:06;;;;;;;24.48;6.20;;;;;;;11.38;100.00;99072.97;5008879;28;20481;-45
2023/03/31 09:56:42;;;;;;;17.60;4.28;;;;;;;11.46;100.00;99070.69;5009106;28;20080;-46
2023/03/31 09:59:19;;;;;;;16.42;4.60;;;;;;;11.18;100.00;99026.81;5008873;28;20050;-48
2023/03/31 10:01:46;;;;;;;18.08;4.47;;;;;;;11.51;100.00;99079.13;5010052;28;20065;-45
2023/03/31 10:04:32;;;;;;;15.63;4.07;;;;;;;11.44;100.00;99064.66;5007569;28;20044;-47
2023/03/31 10:06:59;;;;;;;17.30;4.22;;;;;;;11.41;100.00;99078.06;4997546;28;20052;-46
2023/03/31 10:09:27;;;;;;;17.67;4.43;;;;;;;11.34;100.00;99067.97;5007756;28;20504;-46
2023/03/31 10:11:55;;;;;;;15.77;5.20;;;;;;;11.42;100.00;99081.50;5009802;28;20466;-45
2023/03/31 10:14:31;;;;;;;12.48;3.80;;;;;;;11.35;100.00;99067.91;5008638;28;20511;-44
2023/03/31 10:16:57;;;;;;;16.80;3.90;;;;;;;11.10;100.00;99026.44;5010206;28;20034;-47
2023/03/31 10:19:30;;;;;;;17.70;4.25;;;;;;;11.40;100.00;99068.44;5008768;28;20036;-48
2023/03/31 10:22:00;;;;;;;18.10;3.95;;;;;;;11.29;100.00;99077.00;5010117;28;20071;-49
2023/03/31 10:24:36;;;;;;;11.20;3.67;;;;;;;11.16;100.00;99072.63;5010249;28;20142;-47
2023/03/31 10:27:01;;;;;;;18.70;4.97;;;;;;;11.05;100.00;99054.88;5006987;28;20477;-46
2023/03/31 10:29:32;;;;;;;16.83;4.00;;;;;;;10.82;100.00;99026.50;5006844;28;20046;-46
2023/03/31 10:32:16;;;;;;;14.90;4.03;;;;;;;11.00;100.00;99050.84;5010056;28;20121;-48
2023/03/31 10:34:41;;;;;;;17.55;3.88;;;;;;;10.65;100.00;99009.09;5012041;28;20680;-48
2023/03/31 10:37:11;;;;;;;10.90;3.10;;;;;;;10.87;100.00;99057.78;5013743;28;20042;-45
2023/03/31 10:39:38;;;;;;;12.40;3.80;;;;;;;10.57;100.00;99032.41;5012084;28;20045;-49
2023/03/31 10:42:03;;;;;;;13.15;3.22;;;;;;;10.96;100.00;99073.00;5012085;28;20041;-48
2023/03/31 10:44:36;;;;;;;14.80;3.45;;;;;;;11.00;100.00;99072.75;5013072;28;20041;-45
2023/03/31 10:47:19;;;;;;;11.68;2.70;;;;;;;10.89;100.00;99064.63;5013408;28;20109;-46
2023/03/31 10:49:48;;;;;;;10.63;3.42;;;;;;;10.58;100.00;99009.56;5012125;28;20402;-47
2023/03/31 10:52:22;;;;;;;11.77;3.10;;;;;;;10.92;100.00;99061.81;4995328;28;20540;-49
2023/03/31 10:54:50;;;;;;;13.80;3.50;;;;;;;11.05;100.00;99069.81;5013149;28;20495;-48
2023/03/31 10:57:17;;;;;;;14.15;3.72;;;;;;;11.14;100.00;99056.94;5012935;28;20069;-47
2023/03/31 11:00:04;;;;;;;15.38;3.33;;;;;;;11.17;100.00;99050.63;5011916;28;20415;-47
2023/03/31 11:02:57;;;;;;;12.50;3.75;;;;;;;11.27;100.00;99049.94;5011883;28;20061;-43
2023/03/31 11:05:50;;;;;;;11.98;3.28;;;;;;;11.01;100.00;99005.13;5013340;28;20042;-45
2023/03/31 11:08:25;;;;;;;10.80;3.25;;;;;;;11.30;100.00;99043.63;5007719;28;20533;-45
2023/03/31 11:11:10;;;;;;;14.43;3.00;;;;;;;11.34;100.00;99039.84;5011424;28;20045;-44
2023/03/31 11:13:53;;;;;;;16.90;4.47;;;;;;;11.33;100.00;99043.41;5012706;28;20060;-47
2023/03/31 11:16:40;;;;;;;9.30;3.70;;;;;;;11.19;100.00;99041.69;5012982;28;20092;-48
2023/03/31 11:19:24;;;;;;;14.57;2.70;;;;;;;10.89;100.00;99000.63;5010838;28;20041;-46
2023/03/31 11:21:49;;;;;;;12.43;3.35;;;;;;;11.15;100.00;99036.69;5011366;28;20504;-46
2023/03/31 11:24:21;;;;;;;14.32;3.60;;;;;;;11.21;100.00;99033.66;5012534;28;20038;-47
2023/03/31 11:27:07;;;;;;;9.20;2.33;;;;;;;11.03;100.00;98980.38;5012546;28;20030;-49
2023/03/31 11:29:59;;;;;;;14.40;3.42;;;;;;;11.38;100.00;99029.97;5012681;28;20030;-48
2023/03/31 11:32:44;;;;;;;12.32;3.00;;;;;;;11.27;100.00;99017.47;5009024;28;20111;-45
2023/03/31 11:35:42;;;;;;;9.80;3.10;;;;;;;11.39;100.00;99029.84;5012085;28;20038;-48
2023/03/31 11:38:29;;;;;;;9.82;2.80;;;;;;;11.50;100.00;99023.91;5010520;28;20044;-47